sensor_id;sensor_type;location;lat;lon;timestamp;temperature;humidity
5210;DHT22;2624;48.048;11.706;2023-08-21T00:01:21;24.10;98.90
5210;DHT22;2624;48.048;11.706;2023-08-21T00:06:23;23.80;99.20
5210;DHT22;2624;48.048;11.706;2023-08-21T00:11:26;23.40;99.90
5210;DHT22;2624;48.048;11.706;2023-08-21T00:16:28;23.10;99.90
5210;DHT22;2624;48.048;11.706;2023-08-21T00:21:30;23.50;99.80
5210;DHT22;2624;48.048;11.706;2023-08-21T00:26:33;23.10;99.90
5210;DHT22;2624;48.048;11.706;2023-08-21T00:31:35;23.30;99.90
5210;DHT22;2624;48.048;11.706;2023-08-21T00:36:37;23.70;99.30
5210;DHT22;2624;48.048;11.706;2023-08-21T00:41:40;23.60;99.60
5210;DHT22;2624;48.048;11.706;2023-08-21T00:46:42;23.00;99.90
5210;DHT22;2624;48.048;11.706;2023-08-21T00:51:44;22.70;99.90
5210;DHT22;2624;48.048;11.706;2023-08-21T00:56:48;22.50;99.90
5210;DHT22;2624;48.048;11.706;2023-08-21T01:01:52;22.40;99.90
5210;DHT22;2624;48.048;11.706;2023-08-21T01:06:54;22.30;99.90
5210;DHT22;2624;48.048;11.706;2023-08-21T01:12:06;22.20;99.90
5210;DHT22;2624;48.048;11.706;2023-08-21T01:17:11;22.10;99.90
5210;DHT22;2624;48.048;11.706;2023-08-21T01:22:14;22.10;99.90
5210;DHT22;2624;48.048;11.706;2023-08-21T01:27:17;22.10;99.90
5210;DHT22;2624;48.048;11.706;2023-08-21T01:32:29;22.20;99.90
5210;DHT22;2624;48.048;11.706;2023-08-21T01:37:32;22.50;99.90
5210;DHT22;2624;48.048;11.706;2023-08-21T01:42:36;22.30;99.90
5210;DHT22;2624;48.048;11.706;2023-08-21T01:47:38;22.10;99.90
5210;DHT22;2624;48.048;11.706;2023-08-21T01:52:40;22.50;99.90
5210;DHT22;2624;48.048;11.706;2023-08-21T01:57:43;22.80;99.90
5210;DHT22;2624;48.048;11.706;2023-08-21T02:02:44;22.90;99.90
5210;DHT22;2624;48.048;11.706;2023-08-21T02:07:46;23.00;99.90
5210;DHT22;2624;48.048;11.706;2023-08-21T02:12:49;23.00;99.90
5210;DHT22;2624;48.048;11.706;2023-08-21T02:17:52;22.70;99.90
5210;DHT22;2624;48.048;11.706;2023-08-21T02:22:54;22.90;99.90
5210;DHT22;2624;48.048;11.706;2023-08-21T02:27:58;23.00;99.90
5210;DHT22;2624;48.048;11.706;2023-08-21T02:32:59;23.00;99.90
5210;DHT22;2624;48.048;11.706;2023-08-21T02:38:01;22.10;99.90
5210;DHT22;2624;48.048;11.706;2023-08-21T02:43:04;21.70;99.90
5210;DHT22;2624;48.048;11.706;2023-08-21T02:48:07;21.60;99.90
5210;DHT22;2624;48.048;11.706;2023-08-21T02:53:09;21.30;99.90
5210;DHT22;2624;48.048;11.706;2023-08-21T02:58:12;21.20;99.90
5210;DHT22;2624;48.048;11.706;2023-08-21T03:03:14;21.40;99.90
5210;DHT22;2624;48.048;11.706;2023-08-21T03:08:16;21.10;99.90
5210;DHT22;2624;48.048;11.706;2023-08-21T03:13:19;21.00;99.90
5210;DHT22;2624;48.048;11.706;2023-08-21T03:18:21;22.00;99.90
5210;DHT22;2624;48.048;11.706;2023-08-21T03:23:23;22.20;99.90
5210;DHT22;2624;48.048;11.706;2023-08-21T03:28:26;21.90;99.90
5210;DHT22;2624;48.048;11.706;2023-08-21T03:33:27;21.20;99.90
5210;DHT22;2624;48.048;11.706;2023-08-21T03:38:29;21.30;99.90
5210;DHT22;2624;48.048;11.706;2023-08-21T03:43:32;21.20;99.90
5210;DHT22;2624;48.048;11.706;2023-08-21T03:48:34;21.60;99.90
5210;DHT22;2624;48.048;11.706;2023-08-21T03:53:36;22.00;99.90
5210;DHT22;2624;48.048;11.706;2023-08-21T03:58:39;22.20;99.90
5210;DHT22;2624;48.048;11.706;2023-08-21T04:03:41;21.20;99.90
5210;DHT22;2624;48.048;11.706;2023-08-21T04:08:42;20.90;99.90
5210;DHT22;2624;48.048;11.706;2023-08-21T04:13:45;21.80;99.90
5210;DHT22;2624;48.048;11.706;2023-08-21T04:18:47;22.00;99.90
5210;DHT22;2624;48.048;11.706;2023-08-21T04:23:49;21.90;99.90
5210;DHT22;2624;48.048;11.706;2023-08-21T04:28:52;21.80;99.90
5210;DHT22;2624;48.048;11.706;2023-08-21T04:33:54;21.70;99.90
5210;DHT22;2624;48.048;11.706;2023-08-21T04:38:55;20.70;99.90
5210;DHT22;2624;48.048;11.706;2023-08-21T04:43:59;20.30;99.90
5210;DHT22;2624;48.048;11.706;2023-08-21T04:49:02;20.40;99.90
5210;DHT22;2624;48.048;11.706;2023-08-21T04:54:04;20.90;99.90
5210;DHT22;2624;48.048;11.706;2023-08-21T04:59:07;20.70;99.90
5210;DHT22;2624;48.048;11.706;2023-08-21T05:04:08;20.30;99.90
5210;DHT22;2624;48.048;11.706;2023-08-21T05:09:10;20.30;99.90
5210;DHT22;2624;48.048;11.706;2023-08-21T05:14:13;20.30;99.90
5210;DHT22;2624;48.048;11.706;2023-08-21T05:19:15;20.60;99.90
5210;DHT22;2624;48.048;11.706;2023-08-21T05:24:17;20.50;99.90
5210;DHT22;2624;48.048;11.706;2023-08-21T05:29:20;20.80;99.90
5210;DHT22;2624;48.048;11.706;2023-08-21T05:34:22;21.00;99.90
5210;DHT22;2624;48.048;11.706;2023-08-21T05:39:25;21.00;99.90
5210;DHT22;2624;48.048;11.706;2023-08-21T05:44:28;21.10;99.90
5210;DHT22;2624;48.048;11.706;2023-08-21T05:49:30;21.10;99.90
5210;DHT22;2624;48.048;11.706;2023-08-21T05:54:32;20.90;99.90
5210;DHT22;2624;48.048;11.706;2023-08-21T05:59:37;21.00;99.90
5210;DHT22;2624;48.048;11.706;2023-08-21T06:04:45;21.00;99.90
5210;DHT22;2624;48.048;11.706;2023-08-21T06:09:47;21.10;99.90
5210;DHT22;2624;48.048;11.706;2023-08-21T06:14:50;21.10;99.90
5210;DHT22;2624;48.048;11.706;2023-08-21T06:19:52;21.20;99.90
5210;DHT22;2624;48.048;11.706;2023-08-21T06:24:54;21.30;99.90
5210;DHT22;2624;48.048;11.706;2023-08-21T06:29:57;21.40;99.90
5210;DHT22;2624;48.048;11.706;2023-08-21T06:34:59;21.50;99.90
5210;DHT22;2624;48.048;11.706;2023-08-21T06:40:00;21.50;99.90
5210;DHT22;2624;48.048;11.706;2023-08-21T06:45:04;21.60;99.90
5210;DHT22;2624;48.048;11.706;2023-08-21T06:50:07;21.80;99.90
5210;DHT22;2624;48.048;11.706;2023-08-21T06:55:09;21.90;99.90
5210;DHT22;2624;48.048;11.706;2023-08-21T07:00:13;21.90;99.90
5210;DHT22;2624;48.048;11.706;2023-08-21T07:05:15;22.00;99.90
5210;DHT22;2624;48.048;11.706;2023-08-21T07:10:17;22.10;99.90
5210;DHT22;2624;48.048;11.706;2023-08-21T07:15:20;22.10;99.90
5210;DHT22;2624;48.048;11.706;2023-08-21T07:20:22;22.20;99.90
5210;DHT22;2624;48.048;11.706;2023-08-21T07:25:23;22.30;99.90
5210;DHT22;2624;48.048;11.706;2023-08-21T07:30:27;22.50;99.90
5210;DHT22;2624;48.048;11.706;2023-08-21T07:35:29;22.80;99.90
5210;DHT22;2624;48.048;11.706;2023-08-21T07:40:31;23.10;99.90
5210;DHT22;2624;48.048;11.706;2023-08-21T07:45:37;23.00;99.90
5210;DHT22;2624;48.048;11.706;2023-08-21T07:50:38;23.30;99.90
5210;DHT22;2624;48.048;11.706;2023-08-21T07:55:40;23.00;99.90
5210;DHT22;2624;48.048;11.706;2023-08-21T08:00:43;23.30;99.90
5210;DHT22;2624;48.048;11.706;2023-08-21T08:05:45;23.80;99.90
5210;DHT22;2624;48.048;11.706;2023-08-21T08:10:47;23.60;99.90
5210;DHT22;2624;48.048;11.706;2023-08-21T08:15:50;23.70;99.90
5210;DHT22;2624;48.048;11.706;2023-08-21T08:20:52;23.70;99.90
5210;DHT22;2624;48.048;11.706;2023-08-21T08:25:54;23.70;99.90
5210;DHT22;2624;48.048;11.706;2023-08-21T08:30:57;24.00;99.90
5210;DHT22;2624;48.048;11.706;2023-08-21T08:35:59;23.90;99.90
5210;DHT22;2624;48.048;11.706;2023-08-21T08:41:02;24.60;99.90
5210;DHT22;2624;48.048;11.706;2023-08-21T08:46:06;24.30;99.90
5210;DHT22;2624;48.048;11.706;2023-08-21T08:51:09;24.20;99.90
5210;DHT22;2624;48.048;11.706;2023-08-21T08:56:11;24.90;99.90
5210;DHT22;2624;48.048;11.706;2023-08-21T09:01:14;24.70;99.90
5210;DHT22;2624;48.048;11.706;2023-08-21T09:06:16;24.50;99.90
5210;DHT22;2624;48.048;11.706;2023-08-21T09:11:18;24.70;99.90
5210;DHT22;2624;48.048;11.706;2023-08-21T09:16:23;25.90;98.70
5210;DHT22;2624;48.048;11.706;2023-08-21T09:21:26;26.70;97.80
5210;DHT22;2624;48.048;11.706;2023-08-21T09:26:30;26.30;97.70
5210;DHT22;2624;48.048;11.706;2023-08-21T09:31:36;25.20;99.10
5210;DHT22;2624;48.048;11.706;2023-08-21T09:36:38;25.40;98.80
5210;DHT22;2624;48.048;11.706;2023-08-21T09:41:40;26.50;97.90
5210;DHT22;2624;48.048;11.706;2023-08-21T09:46:43;26.20;98.60
5210;DHT22;2624;48.048;11.706;2023-08-21T09:51:50;26.20;98.10
5210;DHT22;2624;48.048;11.706;2023-08-21T09:56:52;26.00;99.00
5210;DHT22;2624;48.048;11.706;2023-08-21T10:01:57;26.00;98.00
5210;DHT22;2624;48.048;11.706;2023-08-21T10:07:00;26.40;97.70
5210;DHT22;2624;48.048;11.706;2023-08-21T10:12:04;27.50;95.70
5210;DHT22;2624;48.048;11.706;2023-08-21T10:17:07;27.00;96.30
5210;DHT22;2624;48.048;11.706;2023-08-21T10:22:09;26.80;97.10
5210;DHT22;2624;48.048;11.706;2023-08-21T10:27:12;27.10;94.90
5210;DHT22;2624;48.048;11.706;2023-08-21T10:32:22;26.90;96.50
5210;DHT22;2624;48.048;11.706;2023-08-21T10:37:24;27.00;96.40
5210;DHT22;2624;48.048;11.706;2023-08-21T10:42:38;27.50;95.10
5210;DHT22;2624;48.048;11.706;2023-08-21T10:47:42;27.80;94.90
5210;DHT22;2624;48.048;11.706;2023-08-21T10:52:45;27.20;95.50
5210;DHT22;2624;48.048;11.706;2023-08-21T10:57:48;27.60;95.40
5210;DHT22;2624;48.048;11.706;2023-08-21T11:02:51;27.50;95.00
5210;DHT22;2624;48.048;11.706;2023-08-21T11:07:53;28.20;93.80
5210;DHT22;2624;48.048;11.706;2023-08-21T11:12:56;28.30;93.60
5210;DHT22;2624;48.048;11.706;2023-08-21T11:18:00;27.70;94.10
5210;DHT22;2624;48.048;11.706;2023-08-21T11:23:04;28.10;93.90
5210;DHT22;2624;48.048;11.706;2023-08-21T11:28:07;29.20;91.70
5210;DHT22;2624;48.048;11.706;2023-08-21T11:33:11;28.80;92.80
5210;DHT22;2624;48.048;11.706;2023-08-21T11:38:16;28.50;93.10
5210;DHT22;2624;48.048;11.706;2023-08-21T11:43:18;28.50;93.20
5210;DHT22;2624;48.048;11.706;2023-08-21T11:48:21;30.40;89.10
5210;DHT22;2624;48.048;11.706;2023-08-21T11:53:31;29.20;91.90
5210;DHT22;2624;48.048;11.706;2023-08-21T11:58:33;29.40;91.50
5210;DHT22;2624;48.048;11.706;2023-08-21T12:03:40;29.20;91.80
5210;DHT22;2624;48.048;11.706;2023-08-21T12:08:42;29.10;92.60
5210;DHT22;2624;48.048;11.706;2023-08-21T12:13:43;29.40;91.60
5210;DHT22;2624;48.048;11.706;2023-08-21T12:18:47;30.20;90.70
5210;DHT22;2624;48.048;11.706;2023-08-21T12:23:49;29.60;91.50
5210;DHT22;2624;48.048;11.706;2023-08-21T12:28:50;30.00;91.00
5210;DHT22;2624;48.048;11.706;2023-08-21T12:33:54;29.70;91.50
5210;DHT22;2624;48.048;11.706;2023-08-21T12:38:55;30.20;90.60
5210;DHT22;2624;48.048;11.706;2023-08-21T12:43:57;29.80;90.70
5210;DHT22;2624;48.048;11.706;2023-08-21T12:49:00;30.30;91.30
5210;DHT22;2624;48.048;11.706;2023-08-21T12:54:03;30.10;90.70
5210;DHT22;2624;48.048;11.706;2023-08-21T12:59:05;29.80;91.10
5210;DHT22;2624;48.048;11.706;2023-08-21T13:04:08;30.20;90.50
5210;DHT22;2624;48.048;11.706;2023-08-21T13:09:10;30.30;90.30
5210;DHT22;2624;48.048;11.706;2023-08-21T13:14:12;30.10;90.70
5210;DHT22;2624;48.048;11.706;2023-08-21T13:19:15;30.10;90.50
5210;DHT22;2624;48.048;11.706;2023-08-21T13:24:17;30.50;90.50
5210;DHT22;2624;48.048;11.706;2023-08-21T13:29:19;31.40;87.70
5210;DHT22;2624;48.048;11.706;2023-08-21T13:34:22;31.40;86.20
5210;DHT22;2624;48.048;11.706;2023-08-21T13:39:24;31.30;87.60
5210;DHT22;2624;48.048;11.706;2023-08-21T13:44:27;31.30;87.50
5210;DHT22;2624;48.048;11.706;2023-08-21T13:49:30;31.50;87.00
5210;DHT22;2624;48.048;11.706;2023-08-21T13:54:31;31.20;87.70
5210;DHT22;2624;48.048;11.706;2023-08-21T13:59:33;31.70;84.40
5210;DHT22;2624;48.048;11.706;2023-08-21T14:04:36;31.20;87.50
5210;DHT22;2624;48.048;11.706;2023-08-21T14:09:38;31.80;85.70
5210;DHT22;2624;48.048;11.706;2023-08-21T14:14:40;31.70;85.70
5210;DHT22;2624;48.048;11.706;2023-08-21T14:19:43;31.50;86.90
5210;DHT22;2624;48.048;11.706;2023-08-21T14:24:45;31.60;85.40
5210;DHT22;2624;48.048;11.706;2023-08-21T14:29:46;32.00;85.10
5210;DHT22;2624;48.048;11.706;2023-08-21T14:34:49;31.50;86.80
5210;DHT22;2624;48.048;11.706;2023-08-21T14:39:53;31.50;83.90
5210;DHT22;2624;48.048;11.706;2023-08-21T14:44:55;31.30;87.20
5210;DHT22;2624;48.048;11.706;2023-08-21T14:49:58;31.20;87.90
5210;DHT22;2624;48.048;11.706;2023-08-21T14:54:59;31.20;87.30
5210;DHT22;2624;48.048;11.706;2023-08-21T15:00:02;31.00;87.50
5210;DHT22;2624;48.048;11.706;2023-08-21T15:05:06;31.20;87.40
5210;DHT22;2624;48.048;11.706;2023-08-21T15:10:10;31.30;86.20
5210;DHT22;2624;48.048;11.706;2023-08-21T15:15:12;31.20;87.30
5210;DHT22;2624;48.048;11.706;2023-08-21T15:20:15;31.20;87.20
5210;DHT22;2624;48.048;11.706;2023-08-21T15:25:16;31.00;87.70
5210;DHT22;2624;48.048;11.706;2023-08-21T15:30:18;31.10;87.20
5210;DHT22;2624;48.048;11.706;2023-08-21T15:35:21;31.30;85.60
5210;DHT22;2624;48.048;11.706;2023-08-21T15:40:23;31.20;85.80
5210;DHT22;2624;48.048;11.706;2023-08-21T15:45:25;31.30;86.30
5210;DHT22;2624;48.048;11.706;2023-08-21T15:50:28;31.40;82.80
5210;DHT22;2624;48.048;11.706;2023-08-21T15:55:30;31.30;85.70
5210;DHT22;2624;48.048;11.706;2023-08-21T16:00:32;31.20;87.40
5210;DHT22;2624;48.048;11.706;2023-08-21T16:05:35;31.10;87.80
5210;DHT22;2624;48.048;11.706;2023-08-21T16:10:37;31.00;88.10
5210;DHT22;2624;48.048;11.706;2023-08-21T16:15:39;30.90;88.30
5210;DHT22;2624;48.048;11.706;2023-08-21T16:20:42;31.00;87.30
5210;DHT22;2624;48.048;11.706;2023-08-21T16:25:44;31.00;87.90
5210;DHT22;2624;48.048;11.706;2023-08-21T16:30:46;31.00;88.90
5210;DHT22;2624;48.048;11.706;2023-08-21T16:35:49;30.90;88.90
5210;DHT22;2624;48.048;11.706;2023-08-21T16:40:51;30.80;89.00
5210;DHT22;2624;48.048;11.706;2023-08-21T16:45:53;30.80;88.10
5210;DHT22;2624;48.048;11.706;2023-08-21T16:50:56;30.80;88.60
5210;DHT22;2624;48.048;11.706;2023-08-21T16:55:57;30.70;89.60
5210;DHT22;2624;48.048;11.706;2023-08-21T17:00:59;30.70;89.90
5210;DHT22;2624;48.048;11.706;2023-08-21T17:06:02;30.70;90.50
5210;DHT22;2624;48.048;11.706;2023-08-21T17:11:04;30.60;90.60
5210;DHT22;2624;48.048;11.706;2023-08-21T17:16:06;30.60;90.30
5210;DHT22;2624;48.048;11.706;2023-08-21T17:21:09;30.60;90.10
5210;DHT22;2624;48.048;11.706;2023-08-21T17:26:13;30.60;91.00
5210;DHT22;2624;48.048;11.706;2023-08-21T17:31:18;30.50;91.20
5210;DHT22;2624;48.048;11.706;2023-08-21T17:36:21;30.40;90.60
5210;DHT22;2624;48.048;11.706;2023-08-21T17:41:23;30.40;90.50
5210;DHT22;2624;48.048;11.706;2023-08-21T17:46:25;30.40;90.90
5210;DHT22;2624;48.048;11.706;2023-08-21T17:51:29;30.30;90.70
5210;DHT22;2624;48.048;11.706;2023-08-21T17:56:31;30.30;92.10
5210;DHT22;2624;48.048;11.706;2023-08-21T18:01:32;30.20;92.70
5210;DHT22;2624;48.048;11.706;2023-08-21T18:06:35;30.00;91.90
5210;DHT22;2624;48.048;11.706;2023-08-21T18:11:37;29.90;91.80
5210;DHT22;2624;48.048;11.706;2023-08-21T18:16:39;29.80;92.40
5210;DHT22;2624;48.048;11.706;2023-08-21T18:21:43;29.60;92.50
5210;DHT22;2624;48.048;11.706;2023-08-21T18:26:45;29.50;92.10
5210;DHT22;2624;48.048;11.706;2023-08-21T18:31:47;29.40;92.00
5210;DHT22;2624;48.048;11.706;2023-08-21T18:36:50;29.40;92.40
5210;DHT22;2624;48.048;11.706;2023-08-21T18:41:51;29.30;92.70
5210;DHT22;2624;48.048;11.706;2023-08-21T18:46:53;29.30;93.10
5210;DHT22;2624;48.048;11.706;2023-08-21T18:51:56;29.20;94.00
5210;DHT22;2624;48.048;11.706;2023-08-21T18:56:58;29.10;94.70
5210;DHT22;2624;48.048;11.706;2023-08-21T19:02:00;28.90;95.20
5210;DHT22;2624;48.048;11.706;2023-08-21T19:07:03;28.70;95.00
5210;DHT22;2624;48.048;11.706;2023-08-21T19:12:05;28.70;95.50
5210;DHT22;2624;48.048;11.706;2023-08-21T19:17:07;28.60;95.20
5210;DHT22;2624;48.048;11.706;2023-08-21T19:22:10;28.50;95.60
5210;DHT22;2624;48.048;11.706;2023-08-21T19:27:12;28.20;95.10
5210;DHT22;2624;48.048;11.706;2023-08-21T19:32:14;28.30;94.60
5210;DHT22;2624;48.048;11.706;2023-08-21T19:37:17;28.30;94.60
5210;DHT22;2624;48.048;11.706;2023-08-21T19:42:19;28.20;94.30
5210;DHT22;2624;48.048;11.706;2023-08-21T19:47:22;28.10;94.60
5210;DHT22;2624;48.048;11.706;2023-08-21T19:52:26;28.00;94.80
5210;DHT22;2624;48.048;11.706;2023-08-21T19:57:28;28.00;94.80
5210;DHT22;2624;48.048;11.706;2023-08-21T20:02:30;27.80;95.30
5210;DHT22;2624;48.048;11.706;2023-08-21T20:07:33;27.80;95.60
5210;DHT22;2624;48.048;11.706;2023-08-21T20:12:36;27.80;95.80
5210;DHT22;2624;48.048;11.706;2023-08-21T20:17:37;27.80;95.50
5210;DHT22;2624;48.048;11.706;2023-08-21T20:22:41;27.60;95.50
5210;DHT22;2624;48.048;11.706;2023-08-21T20:27:43;27.50;95.70
5210;DHT22;2624;48.048;11.706;2023-08-21T20:32:45;27.20;96.30
5210;DHT22;2624;48.048;11.706;2023-08-21T20:37:48;27.30;95.90
5210;DHT22;2624;48.048;11.706;2023-08-21T20:42:49;27.20;96.40
5210;DHT22;2624;48.048;11.706;2023-08-21T20:47:52;27.20;96.50
5210;DHT22;2624;48.048;11.706;2023-08-21T20:52:55;27.10;96.30
5210;DHT22;2624;48.048;11.706;2023-08-21T20:57:56;27.00;96.40
5210;DHT22;2624;48.048;11.706;2023-08-21T21:02:58;26.90;96.80
5210;DHT22;2624;48.048;11.706;2023-08-21T21:08:01;27.00;97.00
5210;DHT22;2624;48.048;11.706;2023-08-21T21:13:03;26.90;97.20
5210;DHT22;2624;48.048;11.706;2023-08-21T21:18:05;26.80;97.50
5210;DHT22;2624;48.048;11.706;2023-08-21T21:23:08;26.80;97.50
5210;DHT22;2624;48.048;11.706;2023-08-21T21:28:10;26.60;97.70
5210;DHT22;2624;48.048;11.706;2023-08-21T21:33:12;26.50;97.90
5210;DHT22;2624;48.048;11.706;2023-08-21T21:38:15;26.40;98.10
5210;DHT22;2624;48.048;11.706;2023-08-21T21:43:17;26.70;97.80
5210;DHT22;2624;48.048;11.706;2023-08-21T21:48:19;27.20;97.10
5210;DHT22;2624;48.048;11.706;2023-08-21T21:53:24;27.20;97.10
5210;DHT22;2624;48.048;11.706;2023-08-21T21:58:27;26.80;97.60
5210;DHT22;2624;48.048;11.706;2023-08-21T22:03:29;26.90;97.60
5210;DHT22;2624;48.048;11.706;2023-08-21T22:08:32;26.40;98.70
5210;DHT22;2624;48.048;11.706;2023-08-21T22:13:34;26.60;98.30
5210;DHT22;2624;48.048;11.706;2023-08-21T22:18:36;26.70;98.10
5210;DHT22;2624;48.048;11.706;2023-08-21T22:23:39;26.20;99.00
5210;DHT22;2624;48.048;11.706;2023-08-21T22:28:41;25.80;99.40
5210;DHT22;2624;48.048;11.706;2023-08-21T22:33:43;25.70;99.70
5210;DHT22;2624;48.048;11.706;2023-08-21T22:38:46;25.60;99.90
5210;DHT22;2624;48.048;11.706;2023-08-21T22:43:47;25.50;99.90
5210;DHT22;2624;48.048;11.706;2023-08-21T22:48:49;25.40;99.90
5210;DHT22;2624;48.048;11.706;2023-08-21T22:53:52;25.40;99.90
5210;DHT22;2624;48.048;11.706;2023-08-21T22:58:54;25.60;99.90
5210;DHT22;2624;48.048;11.706;2023-08-21T23:03:56;25.50;99.90
5210;DHT22;2624;48.048;11.706;2023-08-21T23:08:59;25.50;99.90
5210;DHT22;2624;48.048;11.706;2023-08-21T23:14:00;25.40;99.90
5210;DHT22;2624;48.048;11.706;2023-08-21T23:19:02;25.20;99.90
5210;DHT22;2624;48.048;11.706;2023-08-21T23:24:06;25.00;99.90
5210;DHT22;2624;48.048;11.706;2023-08-21T23:29:08;24.90;99.90
5210;DHT22;2624;48.048;11.706;2023-08-21T23:34:09;24.90;99.90
5210;DHT22;2624;48.048;11.706;2023-08-21T23:39:12;24.80;99.90
5210;DHT22;2624;48.048;11.706;2023-08-21T23:44:14;24.70;99.90
5210;DHT22;2624;48.048;11.706;2023-08-21T23:49:16;24.60;99.90
5210;DHT22;2624;48.048;11.706;2023-08-21T23:54:20;24.60;99.90
5210;DHT22;2624;48.048;11.706;2023-08-21T23:59:22;24.80;99.90
